createdAt,value
2022-12-08T00:00:25.095Z,14.2
2022-12-08T00:05:25.100Z,14
2022-12-08T00:10:48.288Z,15.4
2022-12-08T00:15:25.093Z,18
2022-12-08T00:20:25.094Z,20.4
2022-12-08T00:25:25.104Z,21.8
2022-12-08T00:30:25.098Z,14.8
2022-12-08T00:35:25.130Z,14.7
2022-12-08T00:40:25.092Z,12.7
2022-12-08T00:45:25.097Z,15.6
2022-12-08T00:50:25.104Z,13.2
2022-12-08T00:55:25.093Z,14.4
2022-12-08T01:00:25.109Z,16.6
2022-12-08T01:05:25.098Z,17.4
2022-12-08T01:10:25.087Z,17.1
2022-12-08T01:15:25.110Z,16.8
2022-12-08T01:20:25.101Z,16.8
2022-12-08T01:25:25.097Z,14.5
2022-12-08T01:30:25.163Z,15.9
2022-12-08T01:35:25.092Z,13.9
2022-12-08T01:40:25.093Z,16.4
2022-12-08T01:45:25.098Z,18.1
2022-12-08T01:50:25.094Z,17.7
2022-12-08T01:55:25.094Z,17.9
2022-12-08T02:00:25.085Z,16.2
2022-12-08T02:05:25.092Z,14
2022-12-08T02:10:25.106Z,14.3
2022-12-08T02:15:25.104Z,11.4
2022-12-08T02:20:25.146Z,12.2
2022-12-08T02:25:25.108Z,12.2
2022-12-08T02:30:25.120Z,12.4
2022-12-08T02:35:25.096Z,13.5
2022-12-08T02:40:25.112Z,14
2022-12-08T02:45:25.118Z,14
2022-12-08T02:50:25.098Z,14.7
2022-12-08T02:55:25.111Z,15.2
2022-12-08T03:00:25.160Z,15.2
2022-12-08T03:05:25.108Z,17
2022-12-08T03:10:25.135Z,17
2022-12-08T03:15:25.096Z,9.6
2022-12-08T03:20:25.103Z,9.6
2022-12-08T03:25:25.094Z,9.6
2022-12-08T03:30:25.100Z,11.9
2022-12-08T03:35:25.093Z,13.9
2022-12-08T03:40:25.093Z,14.5
2022-12-08T03:45:25.095Z,14.3
2022-12-08T03:50:25.092Z,18.6
2022-12-08T03:55:25.097Z,16.3
2022-12-08T04:00:25.091Z,17.5
2022-12-08T04:05:25.095Z,18.5
2022-12-08T04:10:25.094Z,14.2
2022-12-08T04:15:25.098Z,13.2
2022-12-08T04:20:25.102Z,21.4
2022-12-08T04:25:25.093Z,21.4
2022-12-08T04:30:25.086Z,12.3
2022-12-08T04:35:25.095Z,12.3
2022-12-08T04:40:25.087Z,18.1
2022-12-08T04:45:25.110Z,21
2022-12-08T04:50:25.092Z,20.1
2022-12-08T04:55:25.095Z,18.2
2022-12-08T05:00:25.112Z,17.4
2022-12-08T05:05:25.092Z,18.9
2022-12-08T05:10:25.094Z,11.2
2022-12-08T05:15:25.101Z,14
2022-12-08T05:20:25.092Z,16.6
2022-12-08T05:25:25.098Z,14.1
2022-12-08T05:30:25.095Z,15.8
2022-12-08T05:35:25.108Z,14.3
2022-12-08T05:40:25.095Z,11.9
2022-12-08T05:45:25.176Z,13.1
2022-12-08T05:50:25.103Z,14.3
2022-12-08T05:55:25.102Z,15.1
2022-12-08T06:00:25.102Z,11.3
2022-12-08T06:05:25.093Z,14.1
2022-12-08T06:10:25.091Z,16.9
2022-12-08T06:15:25.096Z,17.1
2022-12-08T06:20:25.093Z,15.8
2022-12-08T06:25:25.096Z,20.4
2022-12-08T06:30:25.093Z,16.9
2022-12-08T06:35:25.105Z,16.2
2022-12-08T06:40:25.102Z,17.3
2022-12-08T06:45:25.106Z,16.5
2022-12-08T06:50:25.094Z,19.7
2022-12-08T06:55:51.190Z,19.3
2022-12-08T07:00:25.095Z,16.9
2022-12-08T07:05:25.099Z,13.5
2022-12-08T07:10:25.094Z,15.8
2022-12-08T07:15:25.090Z,15.1
2022-12-08T07:20:25.091Z,13.8
2022-12-08T07:25:25.094Z,14.6
2022-12-08T07:30:25.194Z,13.9
2022-12-08T07:35:25.101Z,12.4
2022-12-08T07:40:25.090Z,14.5
2022-12-08T07:45:31.211Z,13.3
2022-12-08T07:50:25.124Z,17.2
2022-12-08T07:55:25.096Z,15.8
2022-12-08T08:00:25.141Z,18.8
2022-12-08T08:05:25.107Z,22.6
2022-12-08T08:10:25.096Z,22.6
2022-12-08T08:15:25.104Z,19
2022-12-08T08:20:25.098Z,19.9
2022-12-08T08:25:25.108Z,19.9
2022-12-08T08:30:25.094Z,20
2022-12-08T08:35:25.089Z,18.2
2022-12-08T08:40:25.176Z,18.6
2022-12-08T08:45:25.103Z,18.6
2022-12-08T08:50:25.169Z,15.6
2022-12-08T08:55:25.104Z,15.5
2022-12-08T09:00:25.165Z,16
2022-12-08T09:05:25.096Z,17.3
2022-12-08T09:10:25.107Z,17.2
2022-12-08T09:15:25.101Z,19
2022-12-08T09:20:25.089Z,21.3
2022-12-08T09:25:25.103Z,19.6
2022-12-08T09:30:25.094Z,17.9
2022-12-08T09:35:25.110Z,18.2
2022-12-08T09:40:25.108Z,20.2
2022-12-08T09:45:25.100Z,17.3
2022-12-08T09:50:25.103Z,13.8
2022-12-08T09:55:25.098Z,19.9
2022-12-08T10:00:25.095Z,17.4
2022-12-08T10:05:25.179Z,19.7
2022-12-08T10:10:25.092Z,17.1
2022-12-08T10:15:25.102Z,25.9
2022-12-08T10:20:25.105Z,23.6
2022-12-08T10:25:25.094Z,21.3
2022-12-08T10:30:25.092Z,23.8
2022-12-08T10:35:25.099Z,24.9
2022-12-08T10:40:25.092Z,22.1
2022-12-08T10:45:25.101Z,25.4
2022-12-08T10:50:25.101Z,18.9
2022-12-08T10:55:25.111Z,17.8
2022-12-08T11:00:25.100Z,19.9
2022-12-08T11:05:25.089Z,20.1
2022-12-08T11:10:25.092Z,21.3
2022-12-08T11:15:25.097Z,15.2
2022-12-08T11:20:25.089Z,15.3
2022-12-08T11:25:25.103Z,19.2
2022-12-08T11:30:25.095Z,22.2
2022-12-08T11:35:25.099Z,18.2
2022-12-08T11:40:25.101Z,18.5
2022-12-08T11:45:25.100Z,20
2022-12-08T11:50:25.091Z,20.2
2022-12-08T11:55:25.102Z,18.5
2022-12-08T12:00:25.097Z,15
2022-12-08T12:05:33.647Z,21.1
2022-12-08T12:10:25.091Z,17.1
2022-12-08T12:15:25.101Z,14.6
2022-12-08T12:20:25.092Z,14.6
2022-12-08T12:25:25.096Z,17.8
2022-12-08T12:30:25.141Z,20.4
2022-12-08T12:35:27.287Z,19.7
2022-12-08T12:40:25.092Z,17.2
2022-12-08T12:45:25.098Z,14.3
2022-12-08T12:50:25.101Z,13.4
2022-12-08T12:55:25.107Z,16.6
2022-12-08T13:00:25.097Z,18.1
2022-12-08T13:05:25.098Z,14.8
2022-12-08T13:10:25.092Z,18.5
2022-12-08T13:15:25.098Z,19.2
2022-12-08T13:20:25.105Z,17.6
2022-12-08T13:25:25.101Z,15.6
2022-12-08T13:30:25.104Z,14.5
2022-12-08T13:35:25.115Z,17.9
2022-12-08T13:40:25.108Z,18
2022-12-08T13:45:49.019Z,20.5
2022-12-08T14:00:25.095Z,15.3
2022-12-08T14:05:41.000Z,15.2
2022-12-08T14:10:25.097Z,15.2
2022-12-08T14:15:25.192Z,16
2022-12-08T14:20:25.091Z,14.5
2022-12-08T14:25:25.102Z,18.9
2022-12-08T14:30:25.092Z,16.3
2022-12-08T14:35:25.099Z,16
2022-12-08T14:40:25.096Z,14.5
2022-12-08T14:45:25.104Z,19.3
2022-12-08T14:50:25.093Z,15.6
2022-12-08T14:55:25.108Z,15.2
2022-12-08T15:00:25.090Z,16.5
2022-12-08T15:05:25.174Z,16.1
2022-12-08T15:10:25.093Z,18.7
2022-12-08T15:15:25.105Z,17.1
2022-12-08T15:20:27.535Z,15.7
2022-12-08T15:25:25.106Z,16.8
2022-12-08T15:30:25.091Z,17
2022-12-08T15:35:25.105Z,18.3
2022-12-08T15:40:25.096Z,19.4
2022-12-08T15:45:25.217Z,17
2022-12-08T15:50:25.091Z,16.3
2022-12-08T15:55:25.103Z,14.2
2022-12-08T16:00:50.932Z,16.6
2022-12-08T16:05:42.767Z,16.2
2022-12-08T16:10:25.189Z,14.5
2022-12-08T16:20:37.854Z,9.7
2022-12-08T16:25:25.265Z,8.6
2022-12-08T16:30:25.098Z,9
2022-12-08T16:35:25.103Z,12.7
2022-12-08T16:40:25.100Z,14.3
2022-12-08T16:45:25.180Z,13.3
2022-12-08T16:50:25.090Z,13.9
2022-12-08T16:55:25.101Z,19.5
2022-12-08T17:00:25.096Z,20.2
2022-12-08T17:05:25.203Z,20.5
2022-12-08T17:10:25.104Z,19.1
2022-12-08T17:15:25.096Z,16.7
2022-12-08T17:20:25.105Z,16.2
2022-12-08T17:25:25.094Z,18.1
2022-12-08T17:30:25.102Z,18.2
2022-12-08T17:35:25.087Z,18.5
2022-12-08T17:40:28.037Z,18.3
2022-12-08T17:45:25.103Z,15.1
2022-12-08T17:50:25.095Z,17.3
2022-12-08T17:55:25.093Z,17.7
2022-12-08T18:00:25.092Z,16
2022-12-08T18:05:25.096Z,16.3
2022-12-08T18:10:25.097Z,13.5
2022-12-08T18:15:25.110Z,12.5
2022-12-08T18:20:25.106Z,14.2
2022-12-08T18:25:25.218Z,14.9
2022-12-08T18:30:25.097Z,12.9
2022-12-08T18:35:25.108Z,11.7
2022-12-08T18:40:25.094Z,11.9
2022-12-08T18:45:25.095Z,12.8
2022-12-08T18:50:25.095Z,11.5
2022-12-08T18:55:25.105Z,11.2
2022-12-08T19:00:25.090Z,10
2022-12-08T19:05:25.097Z,10
2022-12-08T19:10:25.091Z,10
2022-12-08T19:15:25.098Z,8.4
2022-12-08T19:20:25.099Z,8.3
2022-12-08T19:25:25.097Z,8.3
2022-12-08T19:30:25.091Z,9.4
2022-12-08T19:35:25.114Z,9.4
2022-12-08T19:40:25.109Z,7.6
2022-12-08T19:45:25.166Z,7.6
2022-12-08T19:50:25.094Z,9.2
2022-12-08T19:55:25.092Z,9.7
2022-12-08T20:00:25.095Z,11.4
2022-12-08T20:05:25.100Z,9
2022-12-08T20:10:25.091Z,9.3
2022-12-08T20:15:25.094Z,8.6
2022-12-08T20:20:25.112Z,8.5
2022-12-08T20:25:25.103Z,8.1
2022-12-08T20:30:25.101Z,8.4
2022-12-08T20:35:25.137Z,7.7
2022-12-08T20:40:25.096Z,8.2
2022-12-08T20:45:25.102Z,8.3
2022-12-08T20:50:25.258Z,7.3
2022-12-08T20:55:25.254Z,6.6
2022-12-08T21:00:25.187Z,6.2
2022-12-08T21:05:25.382Z,7.1
2022-12-08T21:10:25.164Z,7.6
2022-12-08T21:15:25.196Z,7.3
2022-12-08T21:20:25.130Z,6.9
2022-12-08T21:25:25.267Z,7.8
2022-12-08T21:30:25.184Z,7.2
2022-12-08T21:35:25.202Z,6.9
2022-12-08T21:40:25.102Z,7.6
2022-12-08T21:45:25.124Z,7.9
2022-12-08T21:50:25.094Z,7.2
2022-12-08T21:55:25.108Z,6.9
2022-12-08T22:00:25.261Z,0
2022-12-08T22:05:25.122Z,4.2
2022-12-08T22:10:25.096Z,0
2022-12-08T22:15:25.246Z,5.3
2022-12-08T22:20:25.108Z,0
2022-12-08T22:25:25.350Z,6.1
2022-12-08T22:30:25.169Z,6.8
2022-12-08T22:35:25.164Z,6.5
2022-12-08T22:40:25.193Z,6.6
2022-12-08T22:45:25.193Z,6.6
2022-12-08T22:50:25.161Z,6.8
2022-12-08T22:55:25.165Z,6.9
2022-12-08T23:00:25.208Z,6.8
2022-12-08T23:05:25.444Z,7.3
2022-12-08T23:10:25.113Z,7.3
2022-12-08T23:15:25.108Z,7
2022-12-08T23:20:25.277Z,6.9
2022-12-08T23:25:25.110Z,8.5
2022-12-08T23:30:25.097Z,7.6
2022-12-08T23:35:25.096Z,7.9
2022-12-08T23:40:25.119Z,7.1
2022-12-08T23:45:25.167Z,0
2022-12-08T23:50:25.104Z,0
2022-12-08T23:55:25.155Z,0
